Aviation Digital Data Service (ADDS)

Output produced by METARs form (0021 UTC 27 June 2017)
found at http://www.aviationweather.gov/adds/metars/
 
KLNS 262353Z 22005KT 10SM CLR 24/09 A2998 RMK AO2 SLP151 T02390089 10261 20233 56008
KLNS 262253Z 20010KT 10SM CLR 25/09 A2999 RMK AO2 SLP151 T02500089
KLNS 262153Z 27011KT 10SM FEW075 26/09 A2999 RMK AO2 SLP155 T02560094
KLNS 262053Z 23008KT 10SM FEW075 SCT095 26/09 A3001 RMK AO2 SLP159 T02560094 58010
KLNS 261953Z 28009KT 10SM BKN085 25/09 A3002 RMK AO2 SLP164 T02500089
KLNS 261853Z 27012G16KT 10SM SCT080 26/10 A3003 RMK AO2 SLP167 T02560100
KLNS 261753Z 27009KT 10SM FEW075 25/09 A3004 RMK AO2 SLP169 T02500094 10250 20194 58012
KLNS 261653Z 27007KT 10SM FEW075 24/10 A3005
KLNS 261553Z VRB03KT 10SM SCT070 24/09 A3006
KLNS 261453Z 29006KT 10SM BKN060 23/08 A3007
KLNS 261353Z 28009KT 10SM CLR 23/12 A3007
KLNS 261253Z 30008KT 10SM CLR 21/13 A3007
KLNS 261153Z 27005KT 10SM CLR 19/14 A3007
KLNS 261053Z 00000KT 10SM CLR 17/14 A3006
KLNS 260653Z AUTO 27004KT 10SM BKN100 17/12 A3003 RMK AO2 SLP168 T01720117
KLNS 260553Z AUTO 29003KT 10SM FEW080 18/12 A3003 RMK AO2 SLP167 T01780117 10250 20172 53003
KLNS 260453Z AUTO 00000KT 10SM CLR 20/10 A3003 RMK AO2 SLP165 T02000100 402830172
KLNS 260353Z AUTO 26006KT 10SM FEW090 BKN110 19/11 A3002 RMK AO2 SLP163 T01940111
KLNS 260253Z 28005KT 10SM CLR 19/11 A3002 RMK AO2 SLP163 T01940111 51014
KLNS 260153Z 28007KT 10SM CLR 21/11 A3002 RMK AO2 SLP161 T02060106
KLNS 260053Z 27009KT 10SM CLR 23/09 A3000 RMK AO2 SLP155 T02280094
KLNS 252353Z 28012KT 10SM CLR 25/09 A2998 RMK AO2 SLP149 T02500089 10283 20250 53012
KLNS 252253Z 29008KT 10SM FEW075 SCT095 26/12 A2997 RMK AO2 SLP145 T02560122
KLNS 252153Z 28017G21KT 10SM CLR 27/12 A2995 RMK AO2 SLP139 T02720117
KLNS 252053Z 29011G19KT 10SM FEW075 SCT110 27/12 A2995 RMK AO2 SLP137 T02670122 56013
KLNS 251853Z 28011KT 10SM FEW100 27/13 A2997 RMK AO2 SLP144 T02720133
KLNS 251753Z 27010KT 10SM SCT065 SCT080 27/14 A2998 RMK AO2 SLP150 T02670139 10278 20217 58012
KLNS 251653Z 28008G16KT 10SM FEW060 27/14 A3000 RMK AO2 SLP155 T02720144
KLNS 251553Z 33005KT 10SM FEW048 SCT065 SCT090 27/16 A3001 RMK AO2 SLP160 T02720161
KLNS 251453Z 30005KT 10SM SCT100 26/16 A3002 RMK AO2 SLP162 T02560161 50003
KLNS 251353Z 31003KT 10SM FEW100 SCT110 24/16 A3002 RMK AO2 SLP162 T02440161
KLNS 251253Z 29008KT 10SM SCT100 BKN120 23/17 A3003 RMK AO2 SLP165 T02330167